sensor_id;sensor_type;location;lat;lon;timestamp;temperature;humidity
52765;DHT22;38650;44.536;18.664;2022-09-19T05:56:07;11.90;99.90
52765;DHT22;38650;44.536;18.664;2022-09-19T05:58:34;11.90;99.90
52765;DHT22;38650;44.536;18.664;2022-09-19T06:01:09;12.00;99.90
52765;DHT22;38650;44.536;18.664;2022-09-19T06:03:35;12.10;99.90
52765;DHT22;38650;44.536;18.664;2022-09-19T06:06:05;12.10;99.90
52765;DHT22;38650;44.536;18.664;2022-09-19T06:08:33;12.10;99.90
52765;DHT22;38650;44.536;18.664;2022-09-19T06:11:00;12.10;99.90
52765;DHT22;38650;44.536;18.664;2022-09-19T06:13:26;12.10;99.90
52765;DHT22;38650;44.536;18.664;2022-09-19T06:16:12;12.20;99.90
52765;DHT22;38650;44.536;18.664;2022-09-19T06:18:37;12.20;99.90
52765;DHT22;38650;44.536;18.664;2022-09-19T06:21:03;12.30;99.90
52765;DHT22;38650;44.536;18.664;2022-09-19T06:23:29;12.30;99.90
52765;DHT22;38650;44.536;18.664;2022-09-19T06:25:55;12.30;99.90
52765;DHT22;38650;44.536;18.664;2022-09-19T06:28:21;12.40;99.90
52765;DHT22;38650;44.536;18.664;2022-09-19T06:30:47;12.50;99.90
52765;DHT22;38650;44.536;18.664;2022-09-19T06:39:48;12.90;99.90
52765;DHT22;38650;44.536;18.664;2022-09-19T06:42:14;13.10;99.90
52765;DHT22;38650;44.536;18.664;2022-09-19T06:44:40;13.20;99.90
52765;DHT22;38650;44.536;18.664;2022-09-19T06:47:06;13.30;99.90
52765;DHT22;38650;44.536;18.664;2022-09-19T06:49:32;13.40;99.90
52765;DHT22;38650;44.536;18.664;2022-09-19T06:51:58;13.50;99.90
52765;DHT22;38650;44.536;18.664;2022-09-19T06:54:24;13.80;99.90
52765;DHT22;38650;44.536;18.664;2022-09-19T06:56:50;14.10;99.90
52765;DHT22;38650;44.536;18.664;2022-09-19T06:59:17;14.40;99.90
52765;DHT22;38650;44.536;18.664;2022-09-19T07:01:43;14.50;99.90
52765;DHT22;38650;44.536;18.664;2022-09-19T07:04:11;14.90;99.90
52765;DHT22;38650;44.536;18.664;2022-09-19T07:06:37;14.90;99.90
52765;DHT22;38650;44.536;18.664;2022-09-19T07:09:04;14.80;99.90
52765;DHT22;38650;44.536;18.664;2022-09-19T07:11:30;14.70;99.90
52765;DHT22;38650;44.536;18.664;2022-09-19T07:13:56;14.70;99.90
52765;DHT22;38650;44.536;18.664;2022-09-19T07:16:22;14.60;99.90
52765;DHT22;38650;44.536;18.664;2022-09-19T07:18:48;14.70;99.90
52765;DHT22;38650;44.536;18.664;2022-09-19T07:21:13;14.70;99.90
52765;DHT22;38650;44.536;18.664;2022-09-19T07:23:39;14.60;99.50
52765;DHT22;38650;44.536;18.664;2022-09-19T07:26:05;14.60;99.30
52765;DHT22;38650;44.536;18.664;2022-09-19T07:28:31;14.50;99.90
52765;DHT22;38650;44.536;18.664;2022-09-19T07:30:58;14.40;99.90
52765;DHT22;38650;44.536;18.664;2022-09-19T07:33:25;14.40;99.90
52765;DHT22;38650;44.536;18.664;2022-09-19T07:35:53;14.30;99.90
52765;DHT22;38650;44.536;18.664;2022-09-19T07:38:20;14.30;99.90
52765;DHT22;38650;44.536;18.664;2022-09-19T07:40:47;14.10;99.90
52765;DHT22;38650;44.536;18.664;2022-09-19T07:43:14;13.90;99.90
52765;DHT22;38650;44.536;18.664;2022-09-19T07:45:47;13.70;99.90
52765;DHT22;38650;44.536;18.664;2022-09-19T07:48:13;13.60;99.90
52765;DHT22;38650;44.536;18.664;2022-09-19T07:50:39;13.50;99.90
52765;DHT22;38650;44.536;18.664;2022-09-19T07:53:08;13.40;99.90
52765;DHT22;38650;44.536;18.664;2022-09-19T07:55:35;13.40;99.90
52765;DHT22;38650;44.536;18.664;2022-09-19T07:58:01;13.30;99.90
52765;DHT22;38650;44.536;18.664;2022-09-19T08:00:30;13.40;99.90
52765;DHT22;38650;44.536;18.664;2022-09-19T08:03:04;13.60;99.90
52765;DHT22;38650;44.536;18.664;2022-09-19T08:05:34;13.70;99.90
52765;DHT22;38650;44.536;18.664;2022-09-19T08:08:01;13.60;99.90
52765;DHT22;38650;44.536;18.664;2022-09-19T08:10:27;13.60;99.90
52765;DHT22;38650;44.536;18.664;2022-09-19T08:13:05;13.80;99.90
52765;DHT22;38650;44.536;18.664;2022-09-19T08:15:38;13.80;99.90
52765;DHT22;38650;44.536;18.664;2022-09-19T08:18:34;13.90;99.90
52765;DHT22;38650;44.536;18.664;2022-09-19T08:21:00;14.00;99.90
52765;DHT22;38650;44.536;18.664;2022-09-19T08:23:26;14.00;99.90
52765;DHT22;38650;44.536;18.664;2022-09-19T08:25:53;13.90;99.90
52765;DHT22;38650;44.536;18.664;2022-09-19T08:28:21;14.00;99.90
52765;DHT22;38650;44.536;18.664;2022-09-19T08:30:47;14.00;99.90
52765;DHT22;38650;44.536;18.664;2022-09-19T08:33:14;14.10;99.90
52765;DHT22;38650;44.536;18.664;2022-09-19T08:35:41;14.10;99.90
52765;DHT22;38650;44.536;18.664;2022-09-19T08:38:08;14.10;99.90
52765;DHT22;38650;44.536;18.664;2022-09-19T08:48:21;13.90;99.90
52765;DHT22;38650;44.536;18.664;2022-09-19T08:51:16;14.00;99.90
52765;DHT22;38650;44.536;18.664;2022-09-19T08:53:46;14.10;99.90
52765;DHT22;38650;44.536;18.664;2022-09-19T08:56:14;14.10;99.90
52765;DHT22;38650;44.536;18.664;2022-09-19T08:58:47;14.30;99.90
52765;DHT22;38650;44.536;18.664;2022-09-19T09:01:16;14.30;99.90
52765;DHT22;38650;44.536;18.664;2022-09-19T09:03:56;14.30;99.90
52765;DHT22;38650;44.536;18.664;2022-09-19T09:06:40;14.40;99.90
52765;DHT22;38650;44.536;18.664;2022-09-19T09:22:42;14.30;99.90
52765;DHT22;38650;44.536;18.664;2022-09-19T09:25:13;14.30;99.90
52765;DHT22;38650;44.536;18.664;2022-09-19T09:27:57;14.20;99.90
52765;DHT22;38650;44.536;18.664;2022-09-19T09:30:24;14.20;99.90
52765;DHT22;38650;44.536;18.664;2022-09-19T09:33:10;14.20;99.90
52765;DHT22;38650;44.536;18.664;2022-09-19T09:35:44;14.20;99.90
52765;DHT22;38650;44.536;18.664;2022-09-19T09:38:34;14.30;99.90
52765;DHT22;38650;44.536;18.664;2022-09-19T09:41:16;14.20;99.90
52765;DHT22;38650;44.536;18.664;2022-09-19T09:49:20;13.80;99.90
52765;DHT22;38650;44.536;18.664;2022-09-19T09:52:22;13.80;99.90
52765;DHT22;38650;44.536;18.664;2022-09-19T09:55:33;13.70;99.90
52765;DHT22;38650;44.536;18.664;2022-09-19T10:09:33;14.00;99.90
52765;DHT22;38650;44.536;18.664;2022-09-19T10:12:21;14.10;99.90
52765;DHT22;38650;44.536;18.664;2022-09-19T10:14:51;14.10;99.90
52765;DHT22;38650;44.536;18.664;2022-09-19T10:17:20;14.00;99.90
52765;DHT22;38650;44.536;18.664;2022-09-19T10:19:57;14.00;99.90
52765;DHT22;38650;44.536;18.664;2022-09-19T10:22:25;13.90;99.90
52765;DHT22;38650;44.536;18.664;2022-09-19T10:24:51;13.90;99.90
52765;DHT22;38650;44.536;18.664;2022-09-19T10:32:43;13.80;99.90
52765;DHT22;38650;44.536;18.664;2022-09-19T10:38:08;13.90;99.90
52765;DHT22;38650;44.536;18.664;2022-09-19T10:40:57;13.80;99.90
52765;DHT22;38650;44.536;18.664;2022-09-19T10:43:32;13.80;99.90
52765;DHT22;38650;44.536;18.664;2022-09-19T10:46:01;13.90;99.90
52765;DHT22;38650;44.536;18.664;2022-09-19T10:48:33;13.90;99.90
52765;DHT22;38650;44.536;18.664;2022-09-19T10:50:59;14.00;99.90
52765;DHT22;38650;44.536;18.664;2022-09-19T10:53:30;13.80;99.90
52765;DHT22;38650;44.536;18.664;2022-09-19T10:56:02;13.30;99.90
52765;DHT22;38650;44.536;18.664;2022-09-19T10:58:29;13.20;99.90
52765;DHT22;38650;44.536;18.664;2022-09-19T11:01:02;13.20;99.90
52765;DHT22;38650;44.536;18.664;2022-09-19T11:03:32;13.20;99.90
52765;DHT22;38650;44.536;18.664;2022-09-19T11:06:12;13.30;99.90
52765;DHT22;38650;44.536;18.664;2022-09-19T11:08:47;13.40;99.90
52765;DHT22;38650;44.536;18.664;2022-09-19T11:14:23;13.00;99.90
52765;DHT22;38650;44.536;18.664;2022-09-19T11:28:20;13.50;99.90
52765;DHT22;38650;44.536;18.664;2022-09-19T11:31:08;13.60;99.90
52765;DHT22;38650;44.536;18.664;2022-09-19T11:36:28;13.60;99.90
52765;DHT22;38650;44.536;18.664;2022-09-19T11:39:22;13.70;99.90
52765;DHT22;38650;44.536;18.664;2022-09-19T11:50:33;14.00;99.90
52765;DHT22;38650;44.536;18.664;2022-09-19T12:02:11;13.80;99.90
52765;DHT22;38650;44.536;18.664;2022-09-19T12:12:41;13.80;99.90
52765;DHT22;38650;44.536;18.664;2022-09-19T12:15:21;13.70;99.90
52765;DHT22;38650;44.536;18.664;2022-09-19T12:20:33;13.70;99.90
52765;DHT22;38650;44.536;18.664;2022-09-19T12:23:12;13.80;99.90
52765;DHT22;38650;44.536;18.664;2022-09-19T12:25:59;13.90;99.90
52765;DHT22;38650;44.536;18.664;2022-09-19T12:28:39;14.00;99.90
52765;DHT22;38650;44.536;18.664;2022-09-19T12:31:09;14.20;99.90
52765;DHT22;38650;44.536;18.664;2022-09-19T12:33:48;14.20;99.90
52765;DHT22;38650;44.536;18.664;2022-09-19T12:36:28;14.20;99.90
52765;DHT22;38650;44.536;18.664;2022-09-19T12:39:40;14.30;99.90
52765;DHT22;38650;44.536;18.664;2022-09-19T12:42:16;14.00;99.90
52765;DHT22;38650;44.536;18.664;2022-09-19T12:52:41;13.70;99.90
52765;DHT22;38650;44.536;18.664;2022-09-19T12:57:56;13.60;99.90
52765;DHT22;38650;44.536;18.664;2022-09-19T13:00:23;13.60;99.90
52765;DHT22;38650;44.536;18.664;2022-09-19T13:05:47;14.00;99.90
52765;DHT22;38650;44.536;18.664;2022-09-19T13:16:07;13.80;99.90
52765;DHT22;38650;44.536;18.664;2022-09-19T13:18:35;13.90;99.90
52765;DHT22;38650;44.536;18.664;2022-09-19T13:21:22;13.90;99.90
52765;DHT22;38650;44.536;18.664;2022-09-19T13:24:25;14.00;99.90
52765;DHT22;38650;44.536;18.664;2022-09-19T13:26:54;13.90;99.90
52765;DHT22;38650;44.536;18.664;2022-09-19T13:35:33;14.10;99.90
52765;DHT22;38650;44.536;18.664;2022-09-19T13:40:05;14.10;99.90
52765;DHT22;38650;44.536;18.664;2022-09-19T13:42:40;14.00;99.90
52765;DHT22;38650;44.536;18.664;2022-09-19T13:45:28;14.10;99.90
52765;DHT22;38650;44.536;18.664;2022-09-19T13:50:52;13.80;99.90
52765;DHT22;38650;44.536;18.664;2022-09-19T13:53:29;13.70;99.90
52765;DHT22;38650;44.536;18.664;2022-09-19T13:56:01;13.60;99.90
52765;DHT22;38650;44.536;18.664;2022-09-19T13:58:35;13.80;99.90
52765;DHT22;38650;44.536;18.664;2022-09-19T14:03:36;14.00;99.90
52765;DHT22;38650;44.536;18.664;2022-09-19T14:09:14;14.20;99.90
52765;DHT22;38650;44.536;18.664;2022-09-19T14:11:40;14.30;99.90
52765;DHT22;38650;44.536;18.664;2022-09-19T14:17:24;14.50;99.90
52765;DHT22;38650;44.536;18.664;2022-09-19T14:19:54;14.60;99.90
52765;DHT22;38650;44.536;18.664;2022-09-19T14:39:33;14.70;99.90
52765;DHT22;38650;44.536;18.664;2022-09-19T14:48:03;14.70;99.90
52765;DHT22;38650;44.536;18.664;2022-09-19T14:50:36;14.70;99.90
52765;DHT22;38650;44.536;18.664;2022-09-19T14:53:15;14.80;99.90
52765;DHT22;38650;44.536;18.664;2022-09-19T14:55:49;14.80;99.90
52765;DHT22;38650;44.536;18.664;2022-09-19T14:58:26;14.90;99.90
52765;DHT22;38650;44.536;18.664;2022-09-19T15:01:06;15.00;99.90
52765;DHT22;38650;44.536;18.664;2022-09-19T15:04:12;14.90;99.90
52765;DHT22;38650;44.536;18.664;2022-09-19T15:06:47;14.90;99.90
52765;DHT22;38650;44.536;18.664;2022-09-19T15:12:01;14.70;99.90
52765;DHT22;38650;44.536;18.664;2022-09-19T15:14:30;14.70;99.90
52765;DHT22;38650;44.536;18.664;2022-09-19T15:17:12;14.80;99.90
52765;DHT22;38650;44.536;18.664;2022-09-19T15:19:49;14.70;99.90
52765;DHT22;38650;44.536;18.664;2022-09-19T15:22:23;14.60;99.90
52765;DHT22;38650;44.536;18.664;2022-09-19T15:24:50;14.60;99.90
52765;DHT22;38650;44.536;18.664;2022-09-19T15:27:19;14.60;99.90
52765;DHT22;38650;44.536;18.664;2022-09-19T15:29:46;14.60;99.90
52765;DHT22;38650;44.536;18.664;2022-09-19T15:32:18;14.60;99.90
52765;DHT22;38650;44.536;18.664;2022-09-19T15:34:52;14.70;99.90
52765;DHT22;38650;44.536;18.664;2022-09-19T15:37:20;14.80;99.90
52765;DHT22;38650;44.536;18.664;2022-09-19T15:39:50;14.90;99.90
52765;DHT22;38650;44.536;18.664;2022-09-19T15:42:17;15.00;99.90
52765;DHT22;38650;44.536;18.664;2022-09-19T15:44:45;15.40;99.90
52765;DHT22;38650;44.536;18.664;2022-09-19T15:47:24;16.00;99.90
52765;DHT22;38650;44.536;18.664;2022-09-19T15:49:56;16.00;99.90
52765;DHT22;38650;44.536;18.664;2022-09-19T15:52:32;16.00;99.90
52765;DHT22;38650;44.536;18.664;2022-09-19T15:54:59;16.30;99.90
52765;DHT22;38650;44.536;18.664;2022-09-19T15:57:31;16.50;99.90
52765;DHT22;38650;44.536;18.664;2022-09-19T16:00:00;16.60;99.90
52765;DHT22;38650;44.536;18.664;2022-09-19T16:02:38;16.60;99.90
52765;DHT22;38650;44.536;18.664;2022-09-19T16:05:17;16.60;99.90
52765;DHT22;38650;44.536;18.664;2022-09-19T16:07:51;16.50;99.90
52765;DHT22;38650;44.536;18.664;2022-09-19T16:10:38;16.40;99.90
52765;DHT22;38650;44.536;18.664;2022-09-19T16:15:53;16.00;99.90
52765;DHT22;38650;44.536;18.664;2022-09-19T16:18:19;15.70;99.90
52765;DHT22;38650;44.536;18.664;2022-09-19T16:21:11;15.20;99.90
52765;DHT22;38650;44.536;18.664;2022-09-19T16:23:43;14.70;99.90
52765;DHT22;38650;44.536;18.664;2022-09-19T16:26:12;14.30;99.90
52765;DHT22;38650;44.536;18.664;2022-09-19T16:28:46;13.90;99.90
52765;DHT22;38650;44.536;18.664;2022-09-19T16:31:26;13.60;99.90
52765;DHT22;38650;44.536;18.664;2022-09-19T16:34:02;13.40;99.90
52765;DHT22;38650;44.536;18.664;2022-09-19T16:36:29;13.20;99.90
52765;DHT22;38650;44.536;18.664;2022-09-19T16:41:25;12.90;99.90
52765;DHT22;38650;44.536;18.664;2022-09-19T16:44:01;12.70;99.90
52765;DHT22;38650;44.536;18.664;2022-09-19T16:46:27;12.60;99.90
52765;DHT22;38650;44.536;18.664;2022-09-19T16:48:52;12.50;99.90
52765;DHT22;38650;44.536;18.664;2022-09-19T16:51:18;12.50;99.90
52765;DHT22;38650;44.536;18.664;2022-09-19T16:53:46;12.40;99.90
52765;DHT22;38650;44.536;18.664;2022-09-19T16:56:18;12.40;99.90
52765;DHT22;38650;44.536;18.664;2022-09-19T16:58:47;12.40;99.90
52765;DHT22;38650;44.536;18.664;2022-09-19T17:01:12;12.40;99.90
52765;DHT22;38650;44.536;18.664;2022-09-19T17:03:39;12.40;99.90
52765;DHT22;38650;44.536;18.664;2022-09-19T17:06:07;12.30;99.90
52765;DHT22;38650;44.536;18.664;2022-09-19T17:08:34;12.20;99.90
52765;DHT22;38650;44.536;18.664;2022-09-19T17:11:00;12.00;99.90
52765;DHT22;38650;44.536;18.664;2022-09-19T17:13:26;11.90;99.90
52765;DHT22;38650;44.536;18.664;2022-09-19T17:16:04;12.00;99.90
52765;DHT22;38650;44.536;18.664;2022-09-19T17:18:30;12.20;99.90
52765;DHT22;38650;44.536;18.664;2022-09-19T17:20:59;12.20;99.90
52765;DHT22;38650;44.536;18.664;2022-09-19T17:23:27;12.20;99.90
52765;DHT22;38650;44.536;18.664;2022-09-19T17:25:55;12.30;99.90
52765;DHT22;38650;44.536;18.664;2022-09-19T17:28:27;12.20;99.90
52765;DHT22;38650;44.536;18.664;2022-09-19T17:30:55;12.20;99.90
52765;DHT22;38650;44.536;18.664;2022-09-19T17:33:23;12.40;99.90
52765;DHT22;38650;44.536;18.664;2022-09-19T17:35:51;12.40;99.90
52765;DHT22;38650;44.536;18.664;2022-09-19T17:38:17;12.50;99.90
52765;DHT22;38650;44.536;18.664;2022-09-19T17:40:44;12.50;99.90
52765;DHT22;38650;44.536;18.664;2022-09-19T17:43:18;12.50;99.90
52765;DHT22;38650;44.536;18.664;2022-09-19T17:45:45;12.40;99.90
52765;DHT22;38650;44.536;18.664;2022-09-19T17:48:13;12.40;99.90
52765;DHT22;38650;44.536;18.664;2022-09-19T17:50:39;12.40;99.90
52765;DHT22;38650;44.536;18.664;2022-09-19T17:53:08;12.40;99.90
52765;DHT22;38650;44.536;18.664;2022-09-19T17:55:35;12.40;99.90
52765;DHT22;38650;44.536;18.664;2022-09-19T17:58:05;12.30;99.90
52765;DHT22;38650;44.536;18.664;2022-09-19T18:00:33;12.10;99.90
52765;DHT22;38650;44.536;18.664;2022-09-19T18:02:59;12.10;99.90
52765;DHT22;38650;44.536;18.664;2022-09-19T18:05:58;12.20;99.90
52765;DHT22;38650;44.536;18.664;2022-09-19T18:08:26;12.20;99.90
52765;DHT22;38650;44.536;18.664;2022-09-19T18:10:58;12.20;99.90
52765;DHT22;38650;44.536;18.664;2022-09-19T18:13:24;12.20;99.90
52765;DHT22;38650;44.536;18.664;2022-09-19T18:15:50;12.10;99.90
52765;DHT22;38650;44.536;18.664;2022-09-19T18:18:17;12.10;99.90
52765;DHT22;38650;44.536;18.664;2022-09-19T18:20:52;12.10;99.90
52765;DHT22;38650;44.536;18.664;2022-09-19T18:23:23;12.00;99.90
52765;DHT22;38650;44.536;18.664;2022-09-19T18:25:48;12.00;99.90
52765;DHT22;38650;44.536;18.664;2022-09-19T18:28:14;11.90;99.90
52765;DHT22;38650;44.536;18.664;2022-09-19T18:30:41;11.90;99.90
52765;DHT22;38650;44.536;18.664;2022-09-19T18:33:07;11.90;99.90
52765;DHT22;38650;44.536;18.664;2022-09-19T18:35:32;11.80;99.90
52765;DHT22;38650;44.536;18.664;2022-09-19T18:37:58;11.80;99.90
52765;DHT22;38650;44.536;18.664;2022-09-19T18:40:24;11.70;99.90
52765;DHT22;38650;44.536;18.664;2022-09-19T18:42:51;11.70;99.90
52765;DHT22;38650;44.536;18.664;2022-09-19T18:45:18;11.70;99.90
52765;DHT22;38650;44.536;18.664;2022-09-19T18:47:43;11.70;99.90
52765;DHT22;38650;44.536;18.664;2022-09-19T18:50:09;11.60;99.90
52765;DHT22;38650;44.536;18.664;2022-09-19T18:52:36;11.40;99.90
52765;DHT22;38650;44.536;18.664;2022-09-19T18:55:02;11.40;99.90
52765;DHT22;38650;44.536;18.664;2022-09-19T18:57:28;11.50;99.90
52765;DHT22;38650;44.536;18.664;2022-09-19T18:59:54;11.50;99.90
52765;DHT22;38650;44.536;18.664;2022-09-19T19:02:20;11.50;99.90
52765;DHT22;38650;44.536;18.664;2022-09-19T19:04:48;11.50;99.90
52765;DHT22;38650;44.536;18.664;2022-09-19T19:07:14;11.50;99.90
52765;DHT22;38650;44.536;18.664;2022-09-19T19:09:40;11.50;99.90
52765;DHT22;38650;44.536;18.664;2022-09-19T19:12:07;11.50;99.90
52765;DHT22;38650;44.536;18.664;2022-09-19T19:14:32;11.50;99.90
52765;DHT22;38650;44.536;18.664;2022-09-19T19:16:58;11.50;99.90
52765;DHT22;38650;44.536;18.664;2022-09-19T19:19:26;11.40;99.90
52765;DHT22;38650;44.536;18.664;2022-09-19T19:21:52;11.40;99.90
52765;DHT22;38650;44.536;18.664;2022-09-19T19:24:19;11.40;99.90
52765;DHT22;38650;44.536;18.664;2022-09-19T19:26:49;11.30;99.90
52765;DHT22;38650;44.536;18.664;2022-09-19T19:29:14;11.20;99.90
52765;DHT22;38650;44.536;18.664;2022-09-19T19:31:40;11.20;99.90
52765;DHT22;38650;44.536;18.664;2022-09-19T19:34:07;11.10;99.90
52765;DHT22;38650;44.536;18.664;2022-09-19T19:36:33;11.10;99.90
52765;DHT22;38650;44.536;18.664;2022-09-19T19:38:59;10.90;99.90
52765;DHT22;38650;44.536;18.664;2022-09-19T19:41:27;10.80;99.90
52765;DHT22;38650;44.536;18.664;2022-09-19T19:43:55;10.80;99.90
52765;DHT22;38650;44.536;18.664;2022-09-19T19:46:22;10.70;99.90
52765;DHT22;38650;44.536;18.664;2022-09-19T19:48:51;10.70;99.90
52765;DHT22;38650;44.536;18.664;2022-09-19T19:51:19;10.80;99.90
52765;DHT22;38650;44.536;18.664;2022-09-19T19:53:45;10.90;99.90
52765;DHT22;38650;44.536;18.664;2022-09-19T19:56:13;10.90;99.90
52765;DHT22;38650;44.536;18.664;2022-09-19T19:58:39;11.00;99.90
52765;DHT22;38650;44.536;18.664;2022-09-19T20:01:16;11.00;99.90
52765;DHT22;38650;44.536;18.664;2022-09-19T20:06:17;10.90;99.90
52765;DHT22;38650;44.536;18.664;2022-09-19T20:08:43;10.80;99.90
52765;DHT22;38650;44.536;18.664;2022-09-19T20:11:09;10.80;99.90
52765;DHT22;38650;44.536;18.664;2022-09-19T20:13:37;10.80;99.90
52765;DHT22;38650;44.536;18.664;2022-09-19T20:16:12;10.80;99.90
52765;DHT22;38650;44.536;18.664;2022-09-19T20:18:43;10.70;99.90
52765;DHT22;38650;44.536;18.664;2022-09-19T20:21:15;10.70;99.90
52765;DHT22;38650;44.536;18.664;2022-09-19T20:23:42;10.60;99.90
52765;DHT22;38650;44.536;18.664;2022-09-19T20:26:15;10.50;99.90
52765;DHT22;38650;44.536;18.664;2022-09-19T20:28:49;10.50;99.90
52765;DHT22;38650;44.536;18.664;2022-09-19T20:31:17;10.50;99.90
52765;DHT22;38650;44.536;18.664;2022-09-19T20:33:45;10.40;99.90
52765;DHT22;38650;44.536;18.664;2022-09-19T20:36:11;10.40;99.90
52765;DHT22;38650;44.536;18.664;2022-09-19T20:38:37;10.50;99.90
52765;DHT22;38650;44.536;18.664;2022-09-19T20:41:04;10.50;99.90
52765;DHT22;38650;44.536;18.664;2022-09-19T20:43:31;10.50;99.90
52765;DHT22;38650;44.536;18.664;2022-09-19T20:46:06;10.40;99.90
52765;DHT22;38650;44.536;18.664;2022-09-19T20:48:34;10.40;99.90
52765;DHT22;38650;44.536;18.664;2022-09-19T20:51:02;10.30;99.90
52765;DHT22;38650;44.536;18.664;2022-09-19T20:53:34;10.20;99.90
52765;DHT22;38650;44.536;18.664;2022-09-19T20:56:08;10.30;99.90
52765;DHT22;38650;44.536;18.664;2022-09-19T20:58:34;10.30;99.90
52765;DHT22;38650;44.536;18.664;2022-09-19T21:01:05;10.20;99.90
52765;DHT22;38650;44.536;18.664;2022-09-19T21:03:32;10.10;99.90
52765;DHT22;38650;44.536;18.664;2022-09-19T21:05:59;9.90;99.90
52765;DHT22;38650;44.536;18.664;2022-09-19T21:08:25;9.90;99.90
52765;DHT22;38650;44.536;18.664;2022-09-19T21:11:03;10.00;99.90
52765;DHT22;38650;44.536;18.664;2022-09-19T21:13:34;10.10;99.90
52765;DHT22;38650;44.536;18.664;2022-09-19T21:16:10;10.10;99.90
52765;DHT22;38650;44.536;18.664;2022-09-19T21:18:36;10.20;99.90
52765;DHT22;38650;44.536;18.664;2022-09-19T21:21:08;10.30;99.90
52765;DHT22;38650;44.536;18.664;2022-09-19T21:23:38;10.20;99.90
52765;DHT22;38650;44.536;18.664;2022-09-19T21:26:08;10.30;99.90
52765;DHT22;38650;44.536;18.664;2022-09-19T21:28:36;10.30;99.90
52765;DHT22;38650;44.536;18.664;2022-09-19T21:31:04;10.30;99.90
52765;DHT22;38650;44.536;18.664;2022-09-19T21:33:30;10.30;99.90
52765;DHT22;38650;44.536;18.664;2022-09-19T21:36:00;10.30;99.90
52765;DHT22;38650;44.536;18.664;2022-09-19T21:38:26;10.30;99.90
52765;DHT22;38650;44.536;18.664;2022-09-19T21:43:25;10.20;99.90
52765;DHT22;38650;44.536;18.664;2022-09-19T21:46:02;10.20;99.90
52765;DHT22;38650;44.536;18.664;2022-09-19T21:48:33;10.20;99.90
52765;DHT22;38650;44.536;18.664;2022-09-19T21:51:04;10.20;99.90
52765;DHT22;38650;44.536;18.664;2022-09-19T21:53:30;10.20;99.90
52765;DHT22;38650;44.536;18.664;2022-09-19T21:55:58;10.30;99.90
52765;DHT22;38650;44.536;18.664;2022-09-19T21:58:25;10.20;99.90
52765;DHT22;38650;44.536;18.664;2022-09-19T22:00:51;10.20;99.90
52765;DHT22;38650;44.536;18.664;2022-09-19T22:03:18;10.20;99.90
52765;DHT22;38650;44.536;18.664;2022-09-19T22:05:44;10.10;99.90
52765;DHT22;38650;44.536;18.664;2022-09-19T22:08:11;10.10;99.90
52765;DHT22;38650;44.536;18.664;2022-09-19T22:10:38;10.10;99.90
52765;DHT22;38650;44.536;18.664;2022-09-19T22:13:04;10.10;99.90
52765;DHT22;38650;44.536;18.664;2022-09-19T22:15:30;10.10;99.90
52765;DHT22;38650;44.536;18.664;2022-09-19T22:17:56;10.10;99.90
52765;DHT22;38650;44.536;18.664;2022-09-19T22:20:23;10.10;99.90
52765;DHT22;38650;44.536;18.664;2022-09-19T22:22:48;10.10;99.90
52765;DHT22;38650;44.536;18.664;2022-09-19T22:25:14;10.10;99.90
52765;DHT22;38650;44.536;18.664;2022-09-19T22:27:40;10.10;99.90
52765;DHT22;38650;44.536;18.664;2022-09-19T22:30:08;10.10;99.90
52765;DHT22;38650;44.536;18.664;2022-09-19T22:32:34;10.10;99.90
52765;DHT22;38650;44.536;18.664;2022-09-19T22:35:00;10.10;99.90
52765;DHT22;38650;44.536;18.664;2022-09-19T22:37:26;10.10;99.90
52765;DHT22;38650;44.536;18.664;2022-09-19T22:39:52;10.20;99.90
52765;DHT22;38650;44.536;18.664;2022-09-19T22:42:17;10.10;99.90
52765;DHT22;38650;44.536;18.664;2022-09-19T22:44:43;10.10;99.90
52765;DHT22;38650;44.536;18.664;2022-09-19T22:47:09;10.10;99.90
52765;DHT22;38650;44.536;18.664;2022-09-19T22:49:34;10.00;99.90
52765;DHT22;38650;44.536;18.664;2022-09-19T22:52:00;10.00;99.90
52765;DHT22;38650;44.536;18.664;2022-09-19T22:54:29;10.00;99.90
52765;DHT22;38650;44.536;18.664;2022-09-19T22:56:55;10.00;99.90
52765;DHT22;38650;44.536;18.664;2022-09-19T22:59:22;10.00;99.90
52765;DHT22;38650;44.536;18.664;2022-09-19T23:01:49;10.00;99.90
52765;DHT22;38650;44.536;18.664;2022-09-19T23:04:16;10.00;99.90
52765;DHT22;38650;44.536;18.664;2022-09-19T23:06:41;9.90;99.90
52765;DHT22;38650;44.536;18.664;2022-09-19T23:09:13;9.80;99.90
52765;DHT22;38650;44.536;18.664;2022-09-19T23:11:40;9.80;99.90
52765;DHT22;38650;44.536;18.664;2022-09-19T23:14:09;9.80;99.90
52765;DHT22;38650;44.536;18.664;2022-09-19T23:16:37;9.80;99.90
52765;DHT22;38650;44.536;18.664;2022-09-19T23:19:10;9.80;99.90
52765;DHT22;38650;44.536;18.664;2022-09-19T23:21:39;9.90;99.90
52765;DHT22;38650;44.536;18.664;2022-09-19T23:24:07;9.80;99.90
52765;DHT22;38650;44.536;18.664;2022-09-19T23:26:33;9.80;99.90
52765;DHT22;38650;44.536;18.664;2022-09-19T23:29:00;9.80;99.90
52765;DHT22;38650;44.536;18.664;2022-09-19T23:31:27;9.80;99.90
52765;DHT22;38650;44.536;18.664;2022-09-19T23:33:53;9.80;99.90
52765;DHT22;38650;44.536;18.664;2022-09-19T23:36:21;9.90;99.90
52765;DHT22;38650;44.536;18.664;2022-09-19T23:38:48;9.80;99.90
52765;DHT22;38650;44.536;18.664;2022-09-19T23:41:16;9.80;99.90
52765;DHT22;38650;44.536;18.664;2022-09-19T23:43:42;9.80;99.90
52765;DHT22;38650;44.536;18.664;2022-09-19T23:46:09;9.80;99.90
52765;DHT22;38650;44.536;18.664;2022-09-19T23:48:35;9.80;99.90
52765;DHT22;38650;44.536;18.664;2022-09-19T23:51:02;9.70;99.90
52765;DHT22;38650;44.536;18.664;2022-09-19T23:53:30;9.60;99.90
52765;DHT22;38650;44.536;18.664;2022-09-19T23:55:59;9.70;99.90
52765;DHT22;38650;44.536;18.664;2022-09-19T23:58:26;9.70;99.90
